Terminal Aerodrome Forecast
Issued by NWS

Home | Current Version | Previous Version | Text Only | Print | Product List | Glossary On
Versions: 1 2 3 4 5 6 7 8 9 10 11 12 13 14 15 16 17 18 19 20 21 22 23 24 25 26 27 28 29 30
000
FTUS42 KCAE 311125
TAFDNL
TAF
KDNL 311125Z 3112/0112 VRB05KT 4SM BR OVC004
      TEMPO 3112/3116 P6SM NSW BKN006 OVC015
     FM311600 05006KT P6SM BKN015
     FM311800 30005KT P6SM SCT020 BKN050
     FM010000 VRB03KT P6SM SCT050 BKN150=

USA.gov is the U.S. government's official web portal to all federal, state and local government web resources and services.